Time;durP1;ratioP1;P1;durP2;ratioP2;P2;SDS_P1;SDS_P2;PMS_P1;PMS_P2;Temp;Humidity;BMP_temperature;BMP_pressure;BME280_temperature;BME280_humidity;BME280_pressure;Samples;Min_cycle;Max_cycle;Signal;HPM_P1;HPM_P2
2023/03/09 00:01:50;;;;;;;18.45;6.95;;;1.50;99.90;;;;;;5004310;28;20026;-74
2023/03/09 00:04:16;;;;;;;18.95;8.07;;;1.50;99.90;;;;;;5003292;28;20033;-74
2023/03/09 00:06:43;;;;;;;16.52;7.43;;;1.50;99.90;;;;;;5003166;28;20040;-75
2023/03/09 00:09:08;;;;;;;17.55;7.45;;;1.40;99.90;;;;;;5003290;28;20129;-74
2023/03/09 00:11:35;;;;;;;15.95;7.50;;;1.50;99.90;;;;;;5004483;28;20137;-74
2023/03/09 00:14:00;;;;;;;15.48;6.28;;;1.40;99.90;;;;;;5018821;28;20034;-74
2023/03/09 00:16:28;;;;;;;16.42;7.22;;;1.40;99.90;;;;;;5002859;28;20116;-75
2023/03/09 00:18:59;;;;;;;16.15;7.35;;;1.40;99.90;;;;;;5002238;28;20083;-72
2023/03/09 00:21:34;;;;;;;16.63;7.38;;;1.40;99.90;;;;;;5001280;28;20084;-73
2023/03/09 00:24:13;;;;;;;19.02;6.90;;;1.40;99.90;;;;;;5003190;28;20121;-72
2023/03/09 00:26:41;;;;;;;17.35;6.88;;;1.40;99.90;;;;;;5005542;28;20041;-73
2023/03/09 00:29:10;;;;;;;14.98;6.82;;;1.40;99.90;;;;;;5003299;28;20071;-74
2023/03/09 00:31:39;;;;;;;13.80;6.60;;;1.40;99.90;;;;;;5004459;28;20088;-74
2023/03/09 00:34:05;;;;;;;14.27;7.05;;;1.40;99.90;;;;;;5004705;28;20124;-74
2023/03/09 00:36:31;;;;;;;14.95;7.18;;;1.40;99.90;;;;;;5004858;28;20066;-71
2023/03/09 00:38:58;;;;;;;14.90;7.00;;;1.40;99.90;;;;;;5004441;28;20057;-73
2023/03/09 00:41:30;;;;;;;14.50;6.13;;;1.40;99.90;;;;;;5001165;28;20034;-72
2023/03/09 00:43:56;;;;;;;17.13;6.97;;;1.40;99.90;;;;;;5002432;28;20053;-73
2023/03/09 00:46:22;;;;;;;19.70;7.60;;;1.40;99.90;;;;;;5003890;28;20052;-73
2023/03/09 00:48:48;;;;;;;18.65;7.75;;;1.40;99.90;;;;;;5002241;28;20026;-74
2023/03/09 00:51:14;;;;;;;15.77;6.85;;;1.40;99.90;;;;;;5002281;28;20095;-73
2023/03/09 00:53:40;;;;;;;17.25;6.72;;;1.40;99.90;;;;;;5004076;28;20124;-75
2023/03/09 00:56:09;;;;;;;15.43;7.18;;;1.50;99.90;;;;;;5002720;28;20176;-75
2023/03/09 00:58:35;;;;;;;16.48;6.47;;;1.50;99.90;;;;;;5003283;28;20107;-75
2023/03/09 01:01:08;;;;;;;18.10;7.38;;;1.60;99.90;;;;;;5004120;28;20548;-73
2023/03/09 01:03:34;;;;;;;12.25;5.82;;;1.50;99.90;;;;;;5004556;28;20038;-73
2023/03/09 01:06:00;;;;;;;13.25;5.95;;;1.60;99.90;;;;;;5003920;28;20041;-73
2023/03/09 01:08:25;;;;;;;12.30;6.05;;;1.60;99.90;;;;;;5004258;28;20713;-73
2023/03/09 01:10:51;;;;;;;13.18;6.07;;;1.60;99.90;;;;;;5002754;28;20153;-73
2023/03/09 01:13:17;;;;;;;12.80;5.60;;;1.60;99.90;;;;;;5004386;28;20050;-74
2023/03/09 01:15:42;;;;;;;17.73;6.88;;;1.60;99.90;;;;;;5004141;28;20038;-73
2023/03/09 01:18:08;;;;;;;15.52;6.63;;;1.60;99.90;;;;;;5002812;28;20479;-73
2023/03/09 01:20:33;;;;;;;15.00;6.18;;;1.70;99.90;;;;;;5003010;28;20042;-74
2023/03/09 01:22:59;;;;;;;12.70;6.50;;;1.60;99.90;;;;;;5003978;28;20030;-73
2023/03/09 01:25:25;;;;;;;12.95;6.18;;;1.60;99.90;;;;;;5006444;28;20057;-73
2023/03/09 01:27:51;;;;;;;12.38;5.70;;;1.60;99.90;;;;;;5010415;28;20651;-73
2023/03/09 01:30:17;;;;;;;16.48;6.97;;;1.70;99.90;;;;;;5008242;28;20038;-74
2023/03/09 01:32:42;;;;;;;14.43;5.97;;;1.70;99.90;;;;;;5008195;28;20067;-74
2023/03/09 01:35:08;;;;;;;10.73;5.38;;;1.60;99.90;;;;;;5007594;28;20034;-73
2023/03/09 01:37:34;;;;;;;11.63;4.82;;;1.70;99.90;;;;;;5006896;28;20129;-74
2023/03/09 01:40:00;;;;;;;13.25;6.20;;;1.60;99.90;;;;;;5007697;28;20781;-74
2023/03/09 01:42:26;;;;;;;12.45;5.43;;;1.70;99.90;;;;;;5007842;28;20037;-73
2023/03/09 01:45:30;;;;;;;11.48;5.25;;;1.60;99.90;;;;;;5008138;28;20490;-74
2023/03/09 01:47:59;;;;;;;14.88;5.90;;;1.60;99.90;;;;;;5004924;28;20072;-73
2023/03/09 01:50:32;;;;;;;11.63;5.30;;;1.60;99.90;;;;;;5005966;28;20042;-72
2023/03/09 01:53:03;;;;;;;14.18;5.32;;;1.70;99.90;;;;;;5008101;28;20042;-76
2023/03/09 01:55:38;;;;;;;12.77;5.35;;;1.70;99.90;;;;;;5008111;28;20452;-72
2023/03/09 01:58:13;;;;;;;13.40;6.15;;;1.70;99.90;;;;;;5006986;28;20033;-73
2023/03/09 02:00:42;;;;;;;11.13;4.93;;;1.70;99.90;;;;;;5006356;28;20041;-74
2023/03/09 02:03:15;;;;;;;11.73;5.05;;;1.70;99.90;;;;;;5006033;28;20038;-73
2023/03/09 02:05:54;;;;;;;12.93;4.85;;;1.70;99.90;;;;;;5006321;28;20038;-75
2023/03/09 02:08:22;;;;;;;11.30;5.75;;;1.70;99.90;;;;;;5006880;28;20038;-73
2023/03/09 02:11:12;;;;;;;13.68;5.22;;;1.60;99.90;;;;;;5003178;28;20566;-73
2023/03/09 02:13:42;;;;;;;11.68;5.10;;;1.60;99.90;;;;;;5004859;28;20141;-73
2023/03/09 02:16:10;;;;;;;11.27;5.00;;;1.70;99.90;;;;;;5007310;28;20034;-74
2023/03/09 02:18:37;;;;;;;12.88;5.70;;;1.70;99.90;;;;;;5007705;28;20077;-75
2023/03/09 02:21:13;;;;;;;11.68;5.38;;;1.70;99.90;;;;;;5021550;28;20508;-73
2023/03/09 02:24:12;;;;;;;14.13;5.93;;;1.70;99.90;;;;;;5007069;28;20084;-75
2023/03/09 02:26:56;;;;;;;12.52;5.70;;;1.70;99.90;;;;;;5006218;28;20131;-74
2023/03/09 02:29:22;;;;;;;12.13;5.30;;;1.70;99.90;;;;;;5019091;28;20042;-73
2023/03/09 02:31:48;;;;;;;11.40;5.60;;;1.70;99.90;;;;;;5005077;28;20068;-72
2023/03/09 02:34:14;;;;;;;10.93;5.35;;;1.70;99.90;;;;;;5005692;28;20038;-74
2023/03/09 02:36:40;;;;;;;10.68;4.93;;;1.70;99.90;;;;;;5006142;28;20040;-74
2023/03/09 02:39:14;;;;;;;11.93;5.72;;;1.80;99.90;;;;;;5005455;28;20026;-72
2023/03/09 02:41:41;;;;;;;10.73;4.88;;;1.80;99.90;;;;;;5018573;28;20041;-73
2023/03/09 02:44:07;;;;;;;14.13;5.53;;;1.80;99.90;;;;;;5006160;28;20033;-74
2023/03/09 02:46:33;;;;;;;11.43;5.07;;;1.70;99.90;;;;;;5005104;28;20553;-74
2023/03/09 02:48:59;;;;;;;10.50;4.95;;;1.70;99.90;;;;;;5006245;28;20121;-74
2023/03/09 02:51:24;;;;;;;12.63;5.05;;;1.70;99.90;;;;;;5005379;28;20495;-73
2023/03/09 02:53:50;;;;;;;14.95;5.03;;;1.70;99.90;;;;;;5021229;28;20124;-77
2023/03/09 02:56:15;;;;;;;10.50;4.65;;;1.70;99.90;;;;;;5005181;28;20072;-72
2023/03/09 02:58:41;;;;;;;13.10;5.35;;;1.70;99.90;;;;;;5004719;28;20036;-74
2023/03/09 03:01:09;;;;;;;11.50;5.85;;;1.70;99.90;;;;;;5004421;28;20169;-72
2023/03/09 03:03:35;;;;;;;12.57;6.03;;;1.70;99.90;;;;;;5004382;28;20045;-76
2023/03/09 03:06:01;;;;;;;12.50;5.63;;;1.70;99.90;;;;;;5004307;28;20056;-74
2023/03/09 03:08:26;;;;;;;12.13;4.90;;;1.70;99.90;;;;;;5004967;28;20038;-74
2023/03/09 03:10:52;;;;;;;10.38;4.88;;;1.70;99.90;;;;;;5005330;28;20112;-74
2023/03/09 03:13:18;;;;;;;14.48;5.90;;;1.70;99.90;;;;;;5004917;28;20049;-73
2023/03/09 03:15:43;;;;;;;11.45;4.68;;;1.70;99.90;;;;;;5004558;28;20540;-73
2023/03/09 03:18:09;;;;;;;14.90;5.95;;;1.70;99.90;;;;;;5005407;28;20029;-73
2023/03/09 03:20:34;;;;;;;12.52;5.18;;;1.70;99.90;;;;;;5004197;28;20038;-73
2023/03/09 03:23:03;;;;;;;14.13;5.68;;;1.70;99.90;;;;;;5005825;28;20525;-72
2023/03/09 03:25:29;;;;;;;13.48;5.65;;;1.70;99.90;;;;;;5006333;28;20042;-74
2023/03/09 03:27:54;;;;;;;13.93;5.68;;;1.60;99.90;;;;;;5006457;28;20045;-72
2023/03/09 03:30:20;;;;;;;11.88;5.43;;;1.60;99.90;;;;;;5006263;28;20047;-74
2023/03/09 03:32:51;;;;;;;14.23;6.82;;;1.60;99.90;;;;;;5004923;28;20030;-73
2023/03/09 03:35:17;;;;;;;;;;;1.70;99.90;;;;;;5006604;28;20042;-72
2023/03/09 03:37:42;;;;;;;11.93;5.82;;;1.70;99.90;;;;;;5004210;28;19936;-72
2023/03/09 03:40:12;;;;;;;11.98;5.43;;;1.70;99.90;;;;;;5004773;28;20047;-72
2023/03/09 03:42:37;;;;;;;12.52;5.22;;;1.70;99.90;;;;;;5005834;28;20026;-72
2023/03/09 03:45:03;;;;;;;13.45;5.43;;;1.70;99.90;;;;;;5005299;28;20532;-74
2023/03/09 03:47:29;;;;;;;13.20;5.88;;;1.70;99.90;;;;;;5005435;28;20177;-73
2023/03/09 03:49:54;;;;;;;12.68;6.00;;;1.70;99.90;;;;;;5005401;28;20473;-73
2023/03/09 03:52:20;;;;;;;11.52;5.57;;;1.80;99.90;;;;;;5004214;28;20048;-72
2023/03/09 03:54:46;;;;;;;13.85;5.88;;;1.70;99.90;;;;;;5003267;28;20037;-72
2023/03/09 03:57:11;;;;;;;11.75;4.88;;;1.70;99.90;;;;;;5005252;28;20033;-72
2023/03/09 03:59:37;;;;;;;10.85;5.28;;;1.60;99.90;;;;;;5005380;28;20079;-74
2023/03/09 04:02:02;;;;;;;11.98;5.43;;;1.70;99.90;;;;;;5005016;28;20399;-72
2023/03/09 04:04:28;;;;;;;12.73;5.65;;;1.80;99.90;;;;;;5005444;28;20041;-73
2023/03/09 04:06:53;;;;;;;10.30;5.00;;;1.80;99.90;;;;;;5005230;28;20029;-73
2023/03/09 04:09:19;;;;;;;13.27;5.70;;;1.80;99.90;;;;;;5005313;28;20372;-73
2023/03/09 04:11:45;;;;;;;14.07;6.15;;;1.80;99.90;;;;;;5002913;28;20065;-73
2023/03/09 04:14:17;;;;;;;12.00;5.63;;;1.80;99.90;;;;;;5005859;28;20390;-73
2023/03/09 04:16:42;;;;;;;11.77;5.03;;;1.70;99.90;;;;;;5002327;28;20041;-73
2023/03/09 04:19:08;;;;;;;11.48;5.25;;;1.70;99.90;;;;;;5004530;28;20026;-72
2023/03/09 04:21:33;;;;;;;12.18;4.97;;;1.70;99.90;;;;;;5005028;28;20046;-72
2023/03/09 04:23:59;;;;;;;13.35;5.50;;;1.70;99.90;;;;;;5002836;28;20514;-72
2023/03/09 04:26:24;;;;;;;12.75;5.63;;;1.70;99.90;;;;;;5005681;28;20041;-72
2023/03/09 04:28:50;;;;;;;14.05;5.93;;;1.70;99.90;;;;;;5004194;28;20499;-73
2023/03/09 04:31:16;;;;;;;13.13;6.78;;;1.80;99.90;;;;;;5004902;28;20037;-74
2023/03/09 04:33:42;;;;;;;13.40;6.00;;;1.70;99.90;;;;;;5003402;28;20026;-74
2023/03/09 04:36:10;;;;;;;11.95;5.20;;;1.70;99.90;;;;;;5003243;28;20087;-73
2023/03/09 04:38:35;;;;;;;13.32;5.90;;;1.70;99.90;;;;;;5004547;28;20585;-73
2023/03/09 04:41:01;;;;;;;10.90;5.00;;;1.80;99.90;;;;;;5004229;28;20034;-73
2023/03/09 04:43:30;;;;;;;13.88;5.22;;;1.80;99.90;;;;;;5004634;28;20466;-73
2023/03/09 04:45:55;;;;;;;14.18;5.95;;;1.70;99.90;;;;;;5004738;28;20050;-73
2023/03/09 04:48:21;;;;;;;11.52;5.05;;;1.70;99.90;;;;;;5004787;28;20091;-72
2023/03/09 04:50:47;;;;;;;12.63;6.25;;;1.80;99.90;;;;;;5003944;28;20045;-73
2023/03/09 04:53:12;;;;;;;14.07;6.25;;;1.80;99.90;;;;;;5004025;28;20076;-72
2023/03/09 04:55:38;;;;;;;15.27;6.38;;;1.70;99.90;;;;;;5004688;28;20513;-73
2023/03/09 04:58:04;;;;;;;15.48;6.40;;;1.70;99.90;;;;;;5004066;28;20049;-73
2023/03/09 05:00:32;;;;;;;15.30;5.95;;;1.80;99.90;;;;;;5002529;28;20483;-73
2023/03/09 05:02:58;;;;;;;12.98;5.88;;;1.80;99.90;;;;;;5002405;28;20087;-73
2023/03/09 05:05:24;;;;;;;15.07;6.20;;;1.80;99.90;;;;;;5003132;28;20164;-75
2023/03/09 05:07:49;;;;;;;14.63;5.95;;;1.80;99.90;;;;;;5004058;28;20546;-73
2023/03/09 05:10:15;;;;;;;12.10;5.65;;;1.80;99.90;;;;;;5001443;28;20041;-72
2023/03/09 05:12:41;;;;;;;13.73;6.20;;;1.80;99.90;;;;;;5004374;28;20084;-72
2023/03/09 05:15:08;;;;;;;15.00;6.22;;;1.80;99.90;;;;;;5004198;28;20091;-73
2023/03/09 05:17:34;;;;;;;15.00;6.50;;;1.80;99.90;;;;;;5004429;28;20540;-72
2023/03/09 05:19:59;;;;;;;16.25;6.90;;;1.80;99.90;;;;;;5003737;28;20042;-72
2023/03/09 05:22:25;;;;;;;14.20;6.53;;;1.80;99.90;;;;;;5004287;28;20029;-72
2023/03/09 05:24:51;;;;;;;16.73;6.35;;;1.70;99.90;;;;;;5002423;28;20049;-73
2023/03/09 05:27:16;;;;;;;14.10;6.45;;;1.70;99.90;;;;;;5004105;28;20042;-72
2023/03/09 05:29:42;;;;;;;15.65;6.47;;;1.70;99.90;;;;;;5002609;28;20276;-73
2023/03/09 05:32:08;;;;;;;17.48;6.80;;;1.70;99.90;;;;;;4999379;28;20093;-72
2023/03/09 05:34:34;;;;;;;14.05;5.95;;;1.80;99.90;;;;;;5001420;28;20548;-73
2023/03/09 05:37:00;;;;;;;15.98;7.15;;;1.80;99.90;;;;;;5000675;28;20057;-72
2023/03/09 05:39:26;;;;;;;17.50;7.00;;;1.80;99.90;;;;;;5003538;28;20490;-73
2023/03/09 05:41:51;;;;;;;14.40;6.72;;;1.80;99.90;;;;;;5002319;28;20701;-73
2023/03/09 05:44:17;;;;;;;15.00;6.70;;;1.80;99.90;;;;;;5001353;28;20454;-72
2023/03/09 05:46:42;;;;;;;15.40;6.60;;;1.80;99.90;;;;;;5002164;28;20054;-73
2023/03/09 05:49:09;;;;;;;12.80;5.82;;;1.80;99.90;;;;;;5003531;28;20042;-73
2023/03/09 05:51:36;;;;;;;16.55;6.70;;;1.80;99.90;;;;;;5004102;28;20030;-72
2023/03/09 05:54:01;;;;;;;18.17;8.05;;;1.80;99.90;;;;;;5003593;28;20034;-73
2023/03/09 05:56:27;;;;;;;16.50;7.15;;;1.80;99.90;;;;;;5004076;28;20440;-74
2023/03/09 05:58:56;;;;;;;15.48;7.25;;;1.80;99.90;;;;;;5002270;28;20041;-73
2023/03/09 06:01:27;;;;;;;17.60;7.60;;;1.70;99.90;;;;;;5004182;28;20461;-72
2023/03/09 06:03:56;;;;;;;14.80;6.95;;;1.80;99.90;;;;;;5003310;28;20500;-74
2023/03/09 06:06:22;;;;;;;16.50;6.70;;;1.80;99.90;;;;;;5000046;28;20117;-74
2023/03/09 06:08:47;;;;;;;17.63;7.07;;;1.80;99.90;;;;;;5004062;28;20563;-74
2023/03/09 06:11:13;;;;;;;18.15;7.57;;;1.80;99.90;;;;;;5002522;28;20041;-73
2023/03/09 06:13:38;;;;;;;15.18;6.53;;;1.80;99.90;;;;;;5005981;28;20109;-72
2023/03/09 06:16:06;;;;;;;17.33;7.22;;;1.80;99.90;;;;;;5004356;28;20029;-73
2023/03/09 06:18:32;;;;;;;16.42;6.32;;;1.80;99.90;;;;;;5003261;28;20137;-72
2023/03/09 06:21:03;;;;;;;20.83;7.35;;;1.80;99.90;;;;;;5004413;28;20063;-73
2023/03/09 06:23:29;;;;;;;18.33;7.18;;;1.80;99.90;;;;;;5005057;28;20045;-73
2023/03/09 06:25:54;;;;;;;19.00;7.20;;;1.80;99.90;;;;;;5005161;28;20026;-73
2023/03/09 06:28:20;;;;;;;22.02;8.07;;;1.80;99.90;;;;;;5004317;28;20053;-73
2023/03/09 06:30:46;;;;;;;18.25;7.45;;;1.80;99.90;;;;;;5002054;28;20042;-73
2023/03/09 06:33:11;;;;;;;20.65;8.65;;;1.80;99.90;;;;;;5003983;28;20061;-73
2023/03/09 06:35:37;;;;;;;18.02;7.00;;;1.80;99.90;;;;;;5003856;28;20050;-75
2023/03/09 06:38:03;;;;;;;18.67;7.47;;;1.80;99.90;;;;;;5005700;28;20582;-73
2023/03/09 06:40:29;;;;;;;17.90;7.47;;;1.90;99.90;;;;;;5002174;28;20038;-73
2023/03/09 06:42:55;;;;;;;20.05;8.05;;;1.90;99.90;;;;;;5004219;28;20038;-73
2023/03/09 06:45:21;;;;;;;20.10;8.68;;;1.90;99.90;;;;;;5003832;28;20048;-74
2023/03/09 06:47:47;;;;;;;18.02;8.48;;;1.90;99.90;;;;;;5005796;28;20041;-74
2023/03/09 06:50:12;;;;;;;20.58;8.05;;;1.90;99.90;;;;;;5004527;28;20042;-73
2023/03/09 06:52:38;;;;;;;16.15;7.50;;;2.00;99.90;;;;;;5005348;28;20056;-72
2023/03/09 06:55:04;;;;;;;21.23;7.93;;;2.00;99.90;;;;;;5004314;28;20437;-73
2023/03/09 06:57:30;;;;;;;17.50;8.00;;;1.90;99.90;;;;;;5003292;28;20038;-73
2023/03/09 06:59:55;;;;;;;19.02;7.72;;;2.00;99.90;;;;;;5003697;28;20498;-73
2023/03/09 07:02:21;;;;;;;16.10;7.03;;;2.00;99.90;;;;;;5005061;28;20046;-73
2023/03/09 07:04:47;;;;;;;17.42;7.70;;;2.00;99.90;;;;;;5003455;28;20512;-74
2023/03/09 07:07:12;;;;;;;17.77;7.65;;;2.00;99.90;;;;;;5003441;28;20091;-73
2023/03/09 07:09:38;;;;;;;17.33;7.53;;;2.10;99.90;;;;;;5004612;28;20398;-74
2023/03/09 07:12:04;;;;;;;18.77;7.93;;;2.10;99.90;;;;;;5003265;28;20128;-74
2023/03/09 07:14:30;;;;;;;26.17;8.48;;;2.10;99.90;;;;;;5003965;28;20053;-72
2023/03/09 07:16:56;;;;;;;14.85;6.95;;;2.10;99.90;;;;;;5002925;28;20583;-73
2023/03/09 07:19:22;;;;;;;18.63;8.02;;;2.10;99.90;;;;;;5002343;28;20046;-73
2023/03/09 07:21:48;;;;;;;17.58;7.55;;;2.10;99.90;;;;;;5004007;28;20041;-74
2023/03/09 07:24:14;;;;;;;16.48;7.50;;;2.20;99.90;;;;;;5004416;28;20133;-73
2023/03/09 07:26:40;;;;;;;15.60;7.30;;;2.30;99.90;;;;;;5004425;28;20108;-74
2023/03/09 07:29:06;;;;;;;17.45;8.35;;;2.30;99.90;;;;;;5002465;28;20034;-73
2023/03/09 07:31:32;;;;;;;18.58;7.50;;;2.30;99.90;;;;;;5005835;28;20034;-73
2023/03/09 07:33:58;;;;;;;16.85;7.65;;;2.20;99.90;;;;;;5000169;28;20115;-73
2023/03/09 07:36:24;;;;;;;17.27;8.05;;;2.30;99.90;;;;;;5001460;28;20030;-73
2023/03/09 07:38:50;;;;;;;17.52;7.65;;;2.30;99.90;;;;;;5003615;28;20046;-75
2023/03/09 07:41:17;;;;;;;16.80;7.78;;;2.40;99.90;;;;;;5003047;28;20042;-73
2023/03/09 07:43:45;;;;;;;15.88;7.47;;;2.40;99.90;;;;;;5002360;28;20086;-73
2023/03/09 07:46:15;;;;;;;16.75;7.28;;;2.40;99.90;;;;;;5001984;28;20125;-73
2023/03/09 07:48:42;;;;;;;16.45;7.85;;;2.40;99.90;;;;;;5003462;28;20522;-73
2023/03/09 07:51:09;;;;;;;17.15;7.45;;;2.40;99.90;;;;;;5001565;28;20064;-73
2023/03/09 07:53:36;;;;;;;16.92;7.60;;;2.50;99.90;;;;;;5006587;28;20041;-73
2023/03/09 07:56:03;;;;;;;15.65;7.22;;;2.50;99.90;;;;;;5002963;28;20440;-74
2023/03/09 07:58:34;;;;;;;19.17;8.10;;;2.50;99.90;;;;;;5003917;28;20110;-73
2023/03/09 08:01:00;;;;;;;17.52;7.28;;;2.50;99.90;;;;;;5002505;28;20041;-73
2023/03/09 08:03:26;;;;;;;19.08;7.90;;;2.60;99.90;;;;;;5002803;28;20528;-72
2023/03/09 08:05:55;;;;;;;17.20;7.40;;;2.60;99.90;;;;;;5003325;28;20137;-75
2023/03/09 08:08:25;;;;;;;14.63;6.80;;;2.70;99.90;;;;;;5005258;28;20048;-73
2023/03/09 08:10:52;;;;;;;;;;;2.70;99.90;;;;;;5003383;28;20042;-75
2023/03/09 08:13:18;;;;;;;19.63;7.97;;;2.70;99.90;;;;;;5000928;28;20413;-73
2023/03/09 08:15:45;;;;;;;18.85;7.45;;;2.80;99.90;;;;;;5003610;28;20029;-73
2023/03/09 08:18:11;;;;;;;16.67;6.82;;;2.90;99.90;;;;;;5002758;28;20031;-74
2023/03/09 08:20:37;;;;;;;17.38;7.70;;;2.90;99.90;;;;;;5003724;28;20037;-76
2023/03/09 08:23:03;;;;;;;17.42;7.78;;;3.00;99.90;;;;;;5002379;28;20041;-73
2023/03/09 08:25:29;;;;;;;16.75;7.00;;;3.10;99.90;;;;;;5002140;28;20037;-73
2023/03/09 08:27:55;;;;;;;17.88;7.63;;;3.10;99.90;;;;;;5005232;28;20030;-74
2023/03/09 08:30:21;;;;;;;17.27;7.53;;;3.10;99.90;;;;;;5002378;28;20149;-73
2023/03/09 08:32:48;;;;;;;16.58;8.05;;;3.20;99.90;;;;;;5001010;28;20073;-72
2023/03/09 08:35:15;;;;;;;17.58;7.45;;;3.20;99.90;;;;;;5001800;28;20041;-73
2023/03/09 08:37:41;;;;;;;16.80;7.82;;;3.20;99.90;;;;;;5000787;28;20037;-73
2023/03/09 08:40:07;;;;;;;16.23;6.80;;;3.10;99.90;;;;;;5002621;28;20042;-75
2023/03/09 08:42:33;;;;;;;18.10;8.15;;;3.00;99.90;;;;;;5001145;28;20033;-73
2023/03/09 08:44:59;;;;;;;18.65;8.32;;;2.90;99.90;;;;;;5002513;28;20391;-75
2023/03/09 08:47:26;;;;;;;15.60;7.43;;;2.90;99.90;;;;;;5002575;28;20037;-73
2023/03/09 08:49:51;;;;;;;17.40;7.57;;;2.90;99.90;;;;;;5000605;28;20037;-74
2023/03/09 08:52:17;;;;;;;15.43;7.57;;;3.00;99.90;;;;;;5003316;28;20041;-74
2023/03/09 08:54:44;;;;;;;17.48;7.55;;;3.00;99.90;;;;;;5000403;28;20119;-74
2023/03/09 08:57:09;;;;;;;15.52;6.97;;;3.00;99.90;;;;;;5001725;28;20129;-73
2023/03/09 08:59:35;;;;;;;16.55;7.78;;;3.20;99.90;;;;;;5000961;28;20026;-73
2023/03/09 09:02:01;;;;;;;15.63;6.78;;;3.10;99.90;;;;;;5002341;28;20030;-73
2023/03/09 09:04:27;;;;;;;19.33;8.65;;;3.10;99.90;;;;;;5001299;28;20029;-73
2023/03/09 09:06:53;;;;;;;17.63;7.05;;;3.10;99.90;;;;;;4998827;28;20037;-74
2023/03/09 09:09:19;;;;;;;18.48;7.80;;;3.10;99.90;;;;;;5000490;28;20486;-73
2023/03/09 09:11:45;;;;;;;18.58;7.65;;;3.10;99.90;;;;;;5016226;28;20049;-73
2023/03/09 09:14:11;;;;;;;19.23;8.50;;;3.20;99.90;;;;;;5001538;28;20050;-75
2023/03/09 09:16:36;;;;;;;17.75;8.23;;;3.20;99.90;;;;;;5001513;28;20073;-73
2023/03/09 09:19:02;;;;;;;18.90;8.18;;;3.20;99.90;;;;;;5001864;28;20042;-73
2023/03/09 09:21:28;;;;;;;17.25;8.27;;;3.20;99.90;;;;;;4999629;28;20069;-72
2023/03/09 09:23:54;;;;;;;18.90;9.20;;;3.30;99.90;;;;;;5016066;28;20044;-73
2023/03/09 09:26:20;;;;;;;16.33;7.65;;;3.40;99.90;;;;;;5003086;28;20042;-73
2023/03/09 09:28:46;;;;;;;16.05;8.32;;;3.40;99.90;;;;;;5000255;28;20049;-73
2023/03/09 09:31:17;;;;;;;15.73;6.60;;;3.50;99.90;;;;;;5000363;28;20034;-72
2023/03/09 09:33:43;;;;;;;14.73;6.68;;;3.50;99.90;;;;;;5000945;28;20072;-73
2023/03/09 09:36:12;;;;;;;18.90;7.75;;;3.50;99.90;;;;;;5001325;28;20132;-73
2023/03/09 09:38:38;;;;;;;17.70;8.02;;;3.50;99.90;;;;;;4998869;28;20125;-72
2023/03/09 09:41:30;;;;;;;19.08;8.77;;;3.50;99.90;;;;;;4999986;28;20244;-74
2023/03/09 09:44:11;;;;;;;15.30;7.00;;;3.50;99.90;;;;;;4998450;28;20108;-74
2023/03/09 09:46:39;;;;;;;17.15;7.63;;;3.50;99.90;;;;;;5000175;28;20092;-73
2023/03/09 09:49:05;;;;;;;18.10;8.07;;;3.40;99.90;;;;;;5003274;28;20033;-73
2023/03/09 09:51:46;;;;;;;18.17;8.20;;;3.50;99.90;;;;;;5005777;28;20042;-74
2023/03/09 09:54:47;;;;;;;21.02;8.35;;;3.50;99.90;;;;;;5004414;28;20050;-74
2023/03/09 09:57:22;;;;;;;17.55;7.15;;;3.50;99.90;;;;;;5003983;28;20038;-74
2023/03/09 09:59:57;;;;;;;16.85;7.53;;;3.50;99.90;;;;;;5007788;28;20041;-73
2023/03/09 10:02:53;;;;;;;21.02;9.43;;;3.60;99.90;;;;;;5004325;28;20042;-73
2023/03/09 10:05:34;;;;;;;19.42;7.57;;;3.60;99.90;;;;;;5005618;28;20619;-73
2023/03/09 10:08:30;;;;;;;18.58;8.65;;;3.60;99.90;;;;;;5003464;28;20025;-74
2023/03/09 10:11:13;;;;;;;18.02;8.18;;;3.70;99.90;;;;;;5018625;28;20033;-73
2023/03/09 10:13:43;;;;;;;18.38;7.90;;;3.70;99.90;;;;;;5005800;28;20072;-75
2023/03/09 10:16:16;;;;;;;12.00;5.70;;;3.70;99.90;;;;;;5003790;28;20037;-72
2023/03/09 10:18:51;;;;;;;23.13;9.57;;;3.70;99.90;;;;;;5005619;28;20137;-74
2023/03/09 10:21:42;;;;;;;20.50;9.68;;;3.70;99.90;;;;;;5003644;28;20188;-73
2023/03/09 10:24:20;;;;;;;23.70;8.43;;;3.80;99.90;;;;;;5003823;28;20042;-72
2023/03/09 10:27:06;;;;;;;21.65;8.10;;;3.80;99.90;;;;;;5005038;28;20040;-73
2023/03/09 10:29:53;;;;;;;20.92;8.02;;;3.80;99.90;;;;;;5020825;28;20034;-73
2023/03/09 10:32:24;;;;;;;21.33;8.02;;;3.80;99.90;;;;;;5005316;28;20120;-74
2023/03/09 10:35:03;;;;;;;20.60;8.40;;;3.90;99.90;;;;;;5000158;28;20430;-73
2023/03/09 10:37:34;;;;;;;16.92;8.10;;;3.90;99.90;;;;;;5019527;28;20030;-74
2023/03/09 10:40:06;;;;;;;20.95;8.98;;;3.80;99.90;;;;;;5002411;28;20524;-73
2023/03/09 10:42:35;;;;;;;23.13;8.25;;;3.90;99.90;;;;;;5006299;28;20042;-74
2023/03/09 10:45:30;;;;;;;20.15;8.77;;;3.90;99.90;;;;;;5001758;28;20120;-74
2023/03/09 10:48:06;;;;;;;18.40;8.45;;;3.90;99.90;;;;;;5004786;28;20038;-75
2023/03/09 10:50:36;;;;;;;22.60;8.55;;;4.00;99.90;;;;;;5003137;28;20061;-74
2023/03/09 10:53:34;;;;;;;17.50;7.70;;;4.00;99.90;;;;;;5004138;28;20046;-73
2023/03/09 10:56:14;;;;;;;20.98;8.63;;;4.00;99.90;;;;;;5019737;28;20079;-74
2023/03/09 10:58:40;;;;;;;18.80;8.32;;;4.00;99.90;;;;;;5001964;28;20137;-75
2023/03/09 11:01:11;;;;;;;19.08;8.73;;;4.20;99.90;;;;;;5002986;28;20033;-73
2023/03/09 11:03:41;;;;;;;21.20;8.98;;;4.20;99.90;;;;;;5020247;28;20038;-75
2023/03/09 11:06:09;;;;;;;20.45;9.60;;;4.20;99.90;;;;;;5001961;28;20596;-74
2023/03/09 11:08:35;;;;;;;21.83;9.23;;;4.30;99.90;;;;;;5004709;28;20128;-74
2023/03/09 11:11:04;;;;;;;19.30;7.82;;;4.20;99.90;;;;;;5004759;28;20193;-74
2023/03/09 11:13:30;;;;;;;21.13;8.48;;;4.30;99.90;;;;;;5003337;28;20409;-74
2023/03/09 11:16:14;;;;;;;20.05;8.02;;;4.20;99.90;;;;;;5004427;28;20038;-73
2023/03/09 11:18:40;;;;;;;20.95;8.70;;;4.30;99.90;;;;;;5003443;28;20038;-74
2023/03/09 11:21:06;;;;;;;20.63;8.57;;;4.20;99.90;;;;;;5001721;28;22159;-75
2023/03/09 11:23:50;;;;;;;19.92;8.50;;;4.30;99.90;;;;;;5001213;28;20133;-73
2023/03/09 11:26:25;;;;;;;18.27;8.13;;;4.30;99.90;;;;;;5003021;28;20092;-74
2023/03/09 11:29:13;;;;;;;19.50;8.02;;;4.30;99.90;;;;;;5001163;28;20041;-74
2023/03/09 11:31:42;;;;;;;21.67;9.05;;;4.20;99.90;;;;;;5000108;28;20133;-74
2023/03/09 11:34:17;;;;;;;18.35;7.30;;;4.10;99.90;;;;;;5001753;28;20607;-73
2023/03/09 11:36:47;;;;;;;17.55;7.43;;;4.10;99.90;;;;;;5002199;28;20125;-75
2023/03/09 11:39:24;;;;;;;18.65;7.63;;;4.00;99.90;;;;;;5003999;28;20038;-74
2023/03/09 11:41:53;;;;;;;21.35;8.82;;;4.00;99.90;;;;;;5001368;28;20033;-73
2023/03/09 11:44:39;;;;;;;18.38;7.60;;;3.90;99.90;;;;;;5002656;28;20041;-73
2023/03/09 11:47:22;;;;;;;21.88;8.75;;;3.90;99.90;;;;;;5000950;28;20046;-73
2023/03/09 11:49:49;;;;;;;20.85;8.07;;;3.80;99.90;;;;;;5002881;28;20037;-73
2023/03/09 11:52:22;;;;;;;23.15;8.73;;;3.70;99.90;;;;;;5003217;28;20062;-73
2023/03/09 11:54:51;;;;;;;20.73;8.52;;;3.60;99.90;;;;;;5003260;28;20034;-74
2023/03/09 11:57:20;;;;;;;21.25;9.40;;;3.70;99.90;;;;;;5003673;28;20117;-75
2023/03/09 12:00:00;;;;;;;20.17;8.50;;;3.70;99.90;;;;;;5006831;28;20038;-73
2023/03/09 12:02:51;;;;;;;21.02;8.55;;;3.80;99.90;;;;;;5005190;28;20589;-73
2023/03/09 12:05:18;;;;;;;23.13;9.13;;;3.70;99.90;;;;;;5005764;28;20123;-73
2023/03/09 12:08:03;;;;;;;23.73;8.77;;;3.80;99.90;;;;;;5003222;28;20052;-73
2023/03/09 12:10:35;;;;;;;21.13;9.02;;;3.90;99.90;;;;;;5000992;28;20041;-74
2023/03/09 12:13:11;;;;;;;23.50;9.82;;;3.90;99.90;;;;;;5004153;28;20433;-73
2023/03/09 12:15:39;;;;;;;21.80;8.77;;;3.90;99.90;;;;;;5004557;28;20025;-73
2023/03/09 12:18:15;;;;;;;23.20;8.85;;;3.80;99.90;;;;;;5006616;28;20045;-74
2023/03/09 12:20:54;;;;;;;23.60;8.88;;;3.80;99.90;;;;;;4999907;28;20038;-75
2023/03/09 12:23:35;;;;;;;18.27;8.13;;;3.70;99.90;;;;;;5003927;28;20046;-74
2023/03/09 12:26:05;;;;;;;;;;;3.70;99.90;;;;;;5003108;28;20046;-73
2023/03/09 12:28:31;;;;;;;18.92;8.15;;;3.60;99.90;;;;;;5003424;28;19921;-73
2023/03/09 12:30:57;;;;;;;22.38;7.97;;;3.50;99.90;;;;;;5004288;28;20038;-74
2023/03/09 12:33:41;;;;;;;20.60;8.25;;;3.50;99.90;;;;;;5006230;28;20533;-73
2023/03/09 12:36:25;;;;;;;19.77;7.18;;;3.40;99.90;;;;;;5003754;28;20068;-74
2023/03/09 12:39:22;;;;;;;21.23;8.30;;;3.40;99.90;;;;;;5000437;28;20391;-73
2023/03/09 12:42:16;;;;;;;17.50;7.45;;;3.30;99.90;;;;;;5003377;28;20042;-74
2023/03/09 12:44:47;;;;;;;20.90;8.60;;;3.30;99.90;;;;;;4978738;28;20096;-73
2023/03/09 12:47:34;;;;;;;17.75;8.32;;;3.20;99.90;;;;;;5017664;28;20490;-72
2023/03/09 12:50:01;;;;;;;19.48;7.90;;;3.20;99.90;;;;;;5003716;28;20041;-73
2023/03/09 12:52:55;;;;;;;20.08;9.00;;;3.10;99.90;;;;;;5003760;28;20537;-73
2023/03/09 12:55:20;;;;;;;19.85;7.93;;;3.10;99.90;;;;;;5004630;28;20044;-74
2023/03/09 12:57:47;;;;;;;19.13;8.70;;;3.10;99.90;;;;;;5004006;28;20494;-72
2023/03/09 13:00:24;;;;;;;22.83;8.88;;;3.10;99.90;;;;;;5005001;28;20040;-73